Time;durP1;ratioP1;P1;durP2;ratioP2;P2;SDS_P1;SDS_P2;PMS_P1;PMS_P2;Temp;Humidity;BMP_temperature;BMP_pressure;BME280_temperature;BME280_humidity;BME280_pressure;Samples;Min_cycle;Max_cycle;Signal;HPM_P1;HPM_P2
2022/06/28 00:01:55;;;;;;;40.53;28.02;;;;;;;;;;5050794;28;20033;-80
2022/06/28 00:04:21;;;;;;;33.35;26.92;;;;;;;;;;5051150;28;20138;-81
2022/06/28 00:06:46;;;;;;;77.38;33.35;;;;;;;;;;5070947;28;20111;-80
2022/06/28 00:09:12;;;;;;;51.28;31.23;;;;;;;;;;5054475;28;20029;-81
2022/06/28 00:11:38;;;;;;;43.10;31.15;;;;;;;;;;5014041;28;20037;-80
2022/06/28 00:16:04;;;;;;;45.78;31.08;;;;;;;;;;5038616;28;20040;-79
2022/06/28 00:16:49;;;;;;;44.53;31.52;;;;;;;;;;5065652;28;20503;-80
2022/06/28 00:19:14;;;;;;;38.33;30.05;;;;;;;;;;5035496;28;20028;-81
2022/06/28 00:21:40;;;;;;;41.28;29.55;;;;;;;;;;5048772;28;20025;-79
2022/06/28 00:24:05;;;;;;;46.22;33.72;;;;;;;;;;5071887;28;20105;-80
2022/06/28 00:26:30;;;;;;;44.35;31.33;;;;;;;;;;5023649;28;20520;-81
2022/06/28 00:28:56;;;;;;;42.47;31.35;;;;;;;;;;5016293;28;20052;-80
2022/06/28 00:31:25;;;;;;;44.95;33.17;;;;;;;;;;5061487;28;20052;-80
2022/06/28 00:33:50;;;;;;;41.38;30.63;;;;;;;;;;5036280;28;20044;-79
2022/06/28 00:36:15;;;;;;;47.50;33.80;;;;;;;;;;5071900;28;20027;-80
2022/06/28 00:38:41;;;;;;;48.08;33.85;;;;;;;;;;5035958;28;20056;-80
2022/06/28 00:41:06;;;;;;;41.47;29.92;;;;;;;;;;5050678;28;20051;-81
2022/06/28 00:43:31;;;;;;;48.88;32.42;;;;;;;;;;5050538;28;20052;-80
2022/06/28 00:45:57;;;;;;;40.17;29.35;;;;;;;;;;5048810;28;20030;-80
2022/06/28 00:48:22;;;;;;;35.15;27.05;;;;;;;;;;5014931;28;20107;-80
2022/06/28 00:50:47;;;;;;;47.80;30.02;;;;;;;;;;5049574;28;20052;-82
2022/06/28 00:53:14;;;;;;;38.90;27.30;;;;;;;;;;5049661;28;20488;-81
2022/06/28 00:55:40;;;;;;;48.83;31.52;;;;;;;;;;5050204;28;20500;-81
2022/06/28 00:58:05;;;;;;;43.90;29.30;;;;;;;;;;5018235;28;20026;-81
2022/06/28 01:00:37;;;;;;;51.42;33.03;;;;;;;;;;5015225;28;20033;-81
2022/06/28 01:03:02;;;;;;;47.17;29.95;;;;;;;;;;5050607;28;20036;-81
2022/06/28 01:05:28;;;;;;;47.80;31.70;;;;;;;;;;5035458;28;20505;-80
2022/06/28 01:07:53;;;;;;;56.08;34.35;;;;;;;;;;5041490;28;20117;-81
2022/06/28 01:10:19;;;;;;;54.35;34.17;;;;;;;;;;5036880;28;20120;-80
2022/06/28 01:12:44;;;;;;;57.30;37.35;;;;;;;;;;5053616;28;20040;-81
2022/06/28 01:15:10;;;;;;;52.00;34.67;;;;;;;;;;5053644;28;20472;-81
2022/06/28 01:17:35;;;;;;;54.95;34.38;;;;;;;;;;5053959;28;20062;-81
2022/06/28 01:20:00;;;;;;;52.17;33.83;;;;;;;;;;5054000;28;20084;-80
2022/06/28 01:22:27;;;;;;;60.90;37.30;;;;;;;;;;5051205;28;20087;-80
2022/06/28 01:24:53;;;;;;;70.43;39.22;;;;;;;;;;5051483;28;20389;-81
2022/06/28 01:27:18;;;;;;;53.35;34.65;;;;;;;;;;5023415;28;20048;-80
2022/06/28 01:29:44;;;;;;;60.20;36.47;;;;;;;;;;5071252;28;20384;-82
2022/06/28 01:32:09;;;;;;;49.17;34.20;;;;;;;;;;5053458;28;20055;-81
2022/06/28 01:34:34;;;;;;;59.83;38.35;;;;;;;;;;5069470;28;20048;-80
2022/06/28 01:37:00;;;;;;;71.68;42.05;;;;;;;;;;5052434;28;20396;-81
2022/06/28 01:39:25;;;;;;;70.32;38.72;;;;;;;;;;5070135;28;20094;-80
2022/06/28 01:41:51;;;;;;;47.60;32.30;;;;;;;;;;5070605;28;20029;-80
2022/06/28 01:44:16;;;;;;;106.15;43.53;;;;;;;;;;5069584;28;20073;-81
2022/06/28 01:46:41;;;;;;;66.30;40.35;;;;;;;;;;5052103;28;20037;-80
2022/06/28 01:49:07;;;;;;;71.25;42.25;;;;;;;;;;5034880;28;20523;-81
2022/06/28 01:51:33;;;;;;;77.97;44.20;;;;;;;;;;5068228;28;20036;-80
2022/06/28 01:53:58;;;;;;;68.45;39.80;;;;;;;;;;5069332;28;20134;-81
2022/06/28 01:56:24;;;;;;;66.43;38.95;;;;;;;;;;5025267;28;20381;-80
2022/06/28 01:58:49;;;;;;;68.57;42.38;;;;;;;;;;5016385;28;20049;-81
2022/06/28 02:01:15;;;;;;;69.82;41.42;;;;;;;;;;5050321;28;20052;-80
2022/06/28 02:03:43;;;;;;;64.00;40.13;;;;;;;;;;5019731;28;20083;-81
2022/06/28 02:06:09;;;;;;;89.15;49.20;;;;;;;;;;5052381;28;20083;-80
2022/06/28 02:08:35;;;;;;;76.75;42.55;;;;;;;;;;5036895;28;20498;-81
2022/06/28 02:11:00;;;;;;;74.88;43.45;;;;;;;;;;5053000;28;20044;-81
2022/06/28 02:13:26;;;;;;;74.70;43.92;;;;;;;;;;5032247;28;20123;-81
2022/06/28 02:15:52;;;;;;;84.85;45.40;;;;;;;;;;5034883;28;20029;-81
2022/06/28 02:18:17;;;;;;;79.45;45.55;;;;;;;;;;5068108;28;20032;-80
2022/06/28 02:20:42;;;;;;;75.45;44.88;;;;;;;;;;5052604;28;20052;-79
2022/06/28 02:23:08;;;;;;;69.63;41.50;;;;;;;;;;5049703;28;20101;-82
2022/06/28 02:25:33;;;;;;;84.35;48.83;;;;;;;;;;5036080;28;20021;-81
2022/06/28 02:27:58;;;;;;;66.97;41.63;;;;;;;;;;5069281;28;20040;-80
2022/06/28 02:30:24;;;;;;;83.55;47.45;;;;;;;;;;5042227;28;20124;-81
2022/06/28 02:32:50;;;;;;;102.88;56.30;;;;;;;;;;5032898;28;20068;-82
2022/06/28 02:40:42;;;;;;;88.57;51.90;;;;;;;;;;5062732;28;20102;-81
2022/06/28 02:43:08;;;;;;;99.38;56.70;;;;;;;;;;5030637;28;20308;-80
2022/06/28 02:45:34;;;;;;;99.05;54.10;;;;;;;;;;5065257;28;20044;-81
2022/06/28 02:48:00;;;;;;;82.78;47.22;;;;;;;;;;5027904;28;20025;-80
2022/06/28 02:50:25;;;;;;;98.00;51.95;;;;;;;;;;5069251;28;20045;-80
2022/06/28 02:52:50;;;;;;;105.10;55.53;;;;;;;;;;5052484;28;20556;-80
2022/06/28 02:55:16;;;;;;;96.22;50.22;;;;;;;;;;5052383;28;20028;-81
2022/06/28 02:57:41;;;;;;;98.30;51.80;;;;;;;;;;5026930;28;20437;-80
2022/06/28 03:00:11;;;;;;;92.18;49.63;;;;;;;;;;5049981;28;20045;-81
2022/06/28 03:02:38;;;;;;;93.22;48.97;;;;;;;;;;5069785;28;20032;-80
2022/06/28 03:05:04;;;;;;;99.40;52.22;;;;;;;;;;5068918;28;20541;-81
2022/06/28 03:07:30;;;;;;;83.32;45.35;;;;;;;;;;5052109;28;20071;-81
2022/06/28 03:09:55;;;;;;;90.85;48.30;;;;;;;;;;5069814;28;20048;-81
2022/06/28 03:12:20;;;;;;;84.18;44.25;;;;;;;;;;5068465;28;20086;-81
2022/06/28 03:14:46;;;;;;;101.75;50.80;;;;;;;;;;5019202;28;20021;-80
2022/06/28 03:17:11;;;;;;;74.97;43.95;;;;;;;;;;5034978;28;20043;-81
2022/06/28 03:19:36;;;;;;;86.93;48.35;;;;;;;;;;5051657;28;20055;-80
2022/06/28 03:22:02;;;;;;;70.35;39.88;;;;;;;;;;5051671;28;20463;-81
2022/06/28 03:24:27;;;;;;;90.07;47.25;;;;;;;;;;5035136;28;20035;-81
2022/06/28 03:26:53;;;;;;;93.85;49.70;;;;;;;;;;5069427;28;20451;-80
2022/06/28 03:29:18;;;;;;;78.00;44.40;;;;;;;;;;5067981;28;20033;-81
2022/06/28 03:31:43;;;;;;;89.97;46.05;;;;;;;;;;5051456;28;20591;-81
2022/06/28 03:34:09;;;;;;;95.75;49.47;;;;;;;;;;5051927;28;20025;-81
2022/06/28 03:36:34;;;;;;;89.25;46.38;;;;;;;;;;5049190;28;20758;-82
2022/06/28 03:38:59;;;;;;;88.80;46.63;;;;;;;;;;5047352;28;20043;-80
2022/06/28 03:41:25;;;;;;;81.63;44.90;;;;;;;;;;5047867;28;20040;-81
2022/06/28 03:43:51;;;;;;;96.22;49.55;;;;;;;;;;5032790;28;20060;-80
2022/06/28 03:46:17;;;;;;;87.57;47.97;;;;;;;;;;5035619;28;20058;-81
2022/06/28 03:48:43;;;;;;;101.50;49.67;;;;;;;;;;5034753;28;20033;-81
2022/06/28 03:51:09;;;;;;;102.10;51.17;;;;;;;;;;5047603;28;20124;-81
2022/06/28 03:53:34;;;;;;;83.93;43.85;;;;;;;;;;5040510;28;20051;-83
2022/06/28 03:56:00;;;;;;;107.00;51.53;;;;;;;;;;5050845;28;20055;-81
2022/06/28 03:58:25;;;;;;;93.82;48.58;;;;;;;;;;5051211;28;20072;-82
2022/06/28 04:00:51;;;;;;;86.75;48.00;;;;;;;;;;5031163;28;20024;-81
2022/06/28 04:03:17;;;;;;;82.15;45.50;;;;;;;;;;5051012;28;20071;-81
2022/06/28 04:05:42;;;;;;;115.18;55.83;;;;;;;;;;5018083;28;20108;-81
2022/06/28 04:08:08;;;;;;;110.85;56.55;;;;;;;;;;5061296;28;20111;-80
2022/06/28 04:10:34;;;;;;;89.57;47.45;;;;;;;;;;5043041;28;20040;-83
2022/06/28 04:12:59;;;;;;;78.78;46.63;;;;;;;;;;5054802;28;20107;-81
2022/06/28 04:15:24;;;;;;;85.05;47.15;;;;;;;;;;5046530;28;20129;-82
2022/06/28 04:17:50;;;;;;;96.80;49.60;;;;;;;;;;5064732;28;20059;-83
2022/06/28 04:20:15;;;;;;;93.28;47.75;;;;;;;;;;5058169;28;20467;-78
2022/06/28 04:22:44;;;;;;;90.05;48.50;;;;;;;;;;5030942;28;20531;-78
2022/06/28 04:25:09;;;;;;;97.00;51.65;;;;;;;;;;5031979;28;20032;-78
2022/06/28 04:27:35;;;;;;;82.38;45.78;;;;;;;;;;5056180;28;20079;-78
2022/06/28 04:30:00;;;;;;;93.78;50.15;;;;;;;;;;5028090;28;20111;-83
2022/06/28 04:32:25;;;;;;;93.60;49.05;;;;;;;;;;5028750;28;20107;-80
2022/06/28 04:34:51;;;;;;;92.38;49.95;;;;;;;;;;5046618;28;20039;-79
2022/06/28 04:37:16;;;;;;;81.38;43.20;;;;;;;;;;5053736;28;20059;-81
2022/06/28 04:39:42;;;;;;;88.55;46.70;;;;;;;;;;5069254;28;20062;-80
2022/06/28 04:42:07;;;;;;;96.10;51.13;;;;;;;;;;5053230;28;20028;-80
2022/06/28 04:44:33;;;;;;;90.28;49.63;;;;;;;;;;5052849;28;20036;-80
2022/06/28 04:46:59;;;;;;;94.68;49.53;;;;;;;;;;5053992;28;20032;-80
2022/06/28 04:49:25;;;;;;;94.45;51.05;;;;;;;;;;5036676;28;20021;-79
2022/06/28 04:51:50;;;;;;;91.97;47.60;;;;;;;;;;5061636;28;20070;-79
2022/06/28 04:54:16;;;;;;;90.43;48.63;;;;;;;;;;5052274;28;20021;-81
2022/06/28 04:56:41;;;;;;;94.07;47.78;;;;;;;;;;5053661;28;20029;-81
2022/06/28 04:59:06;;;;;;;91.10;49.53;;;;;;;;;;5068035;28;20071;-79
2022/06/28 05:01:32;;;;;;;96.63;50.22;;;;;;;;;;5036412;28;20108;-80
2022/06/28 05:03:57;;;;;;;87.32;48.88;;;;;;;;;;5035941;28;20039;-80
2022/06/28 05:06:23;;;;;;;65.18;42.97;;;;;;;;;;5061841;28;20105;-80
2022/06/28 05:08:48;;;;;;;88.40;48.45;;;;;;;;;;5053192;28;20073;-80
2022/06/28 05:11:13;;;;;;;90.28;48.08;;;;;;;;;;5035874;28;20579;-81
2022/06/28 05:13:39;;;;;;;94.18;50.22;;;;;;;;;;5035286;28;20036;-80
2022/06/28 05:16:04;;;;;;;77.95;44.97;;;;;;;;;;5070681;28;20051;-79
2022/06/28 05:18:30;;;;;;;73.32;43.80;;;;;;;;;;5052482;28;20078;-80
2022/06/28 05:20:55;;;;;;;73.47;43.10;;;;;;;;;;5052231;28;20154;-81
2022/06/28 05:23:20;;;;;;;77.80;42.67;;;;;;;;;;5051613;28;20071;-79
2022/06/28 05:25:46;;;;;;;77.60;44.13;;;;;;;;;;5035310;28;20032;-80
2022/06/28 05:28:11;;;;;;;76.88;42.47;;;;;;;;;;5035193;28;20101;-80
2022/06/28 05:30:37;;;;;;;75.75;42.75;;;;;;;;;;5036280;28;20040;-81
2022/06/28 05:33:03;;;;;;;65.05;40.60;;;;;;;;;;5034593;28;20067;-79
2022/06/28 05:35:29;;;;;;;63.92;38.75;;;;;;;;;;5067662;28;20032;-81
2022/06/28 05:37:55;;;;;;;63.30;40.00;;;;;;;;;;5052222;28;20108;-80
2022/06/28 05:40:21;;;;;;;65.57;39.92;;;;;;;;;;5050707;28;20066;-79
2022/06/28 05:42:46;;;;;;;56.60;35.78;;;;;;;;;;5016876;28;20071;-80
2022/06/28 05:45:12;;;;;;;60.00;35.35;;;;;;;;;;5033291;28;20048;-80
2022/06/28 05:47:37;;;;;;;58.00;35.70;;;;;;;;;;5030490;28;20060;-81
2022/06/28 05:50:03;;;;;;;57.35;37.67;;;;;;;;;;5047042;28;20033;-80
2022/06/28 05:52:29;;;;;;;58.53;34.45;;;;;;;;;;5023686;28;20465;-80
2022/06/28 05:54:55;;;;;;;53.05;33.25;;;;;;;;;;5013211;28;20041;-79
2022/06/28 05:57:20;;;;;;;52.92;33.70;;;;;;;;;;5047417;28;20120;-79
2022/06/28 05:59:46;;;;;;;53.50;33.28;;;;;;;;;;5045068;28;20044;-79
2022/06/28 06:02:11;;;;;;;48.72;29.65;;;;;;;;;;5046191;28;20158;-80
2022/06/28 06:04:38;;;;;;;44.65;29.63;;;;;;;;;;5014867;28;20044;-80
2022/06/28 06:07:04;;;;;;;40.60;28.42;;;;;;;;;;5060034;28;20454;-78
2022/06/28 06:09:31;;;;;;;36.45;26.98;;;;;;;;;;5029307;28;20030;-80
2022/06/28 06:11:56;;;;;;;33.60;24.15;;;;;;;;;;5002947;28;20048;-79
2022/06/28 06:14:21;;;;;;;34.53;24.27;;;;;;;;;;5017202;28;20029;-79
2022/06/28 06:16:50;;;;;;;35.50;25.83;;;;;;;;;;5060686;28;20064;-80
2022/06/28 06:19:16;;;;;;;36.45;23.40;;;;;;;;;;5066603;28;20799;-80
2022/06/28 06:21:41;;;;;;;31.42;23.90;;;;;;;;;;5034790;28;20024;-79
2022/06/28 06:24:07;;;;;;;34.05;22.67;;;;;;;;;;5064925;28;20025;-79
2022/06/28 06:26:33;;;;;;;33.72;22.10;;;;;;;;;;5066810;28;20396;-80
2022/06/28 06:28:58;;;;;;;34.83;22.63;;;;;;;;;;5055778;28;20040;-79
2022/06/28 06:31:23;;;;;;;31.27;19.40;;;;;;;;;;5028842;28;20554;-79
2022/06/28 06:33:49;;;;;;;35.22;19.38;;;;;;;;;;5012942;28;20046;-80
2022/06/28 06:36:14;;;;;;;25.67;18.38;;;;;;;;;;5043361;28;20460;-77
2022/06/28 06:38:39;;;;;;;23.60;16.90;;;;;;;;;;5028338;28;20078;-79
2022/06/28 06:41:05;;;;;;;22.08;16.63;;;;;;;;;;4992216;28;20053;-79
2022/06/28 06:43:30;;;;;;;25.75;14.68;;;;;;;;;;5008083;28;20049;-79
2022/06/28 06:45:56;;;;;;;25.85;14.13;;;;;;;;;;5009027;28;20025;-78
2022/06/28 06:48:21;;;;;;;18.25;11.80;;;;;;;;;;4999464;28;20025;-77
2022/06/28 06:50:47;;;;;;;20.20;9.98;;;;;;;;;;5014070;28;20404;-79
2022/06/28 06:53:12;;;;;;;15.95;8.70;;;;;;;;;;5064008;28;20385;-76
2022/06/28 06:55:37;;;;;;;20.88;8.55;;;;;;;;;;5063414;28;20055;-78
2022/06/28 06:58:03;;;;;;;15.15;7.32;;;;;;;;;;5029010;28;20053;-78
2022/06/28 07:00:28;;;;;;;15.07;7.95;;;;;;;;;;5030771;28;20507;-78
2022/06/28 07:02:54;;;;;;;15.70;7.10;;;;;;;;;;5047494;28;20088;-78
2022/06/28 07:05:19;;;;;;;18.52;6.68;;;;;;;;;;5046802;28;20432;-78
2022/06/28 07:07:44;;;;;;;17.05;6.43;;;;;;;;;;5052892;28;20024;-78
2022/06/28 07:10:10;;;;;;;15.40;7.32;;;;;;;;;;5046710;28;20051;-78
2022/06/28 07:12:35;;;;;;;12.95;5.97;;;;;;;;;;5065035;28;20089;-78
2022/06/28 07:15:00;;;;;;;14.10;6.40;;;;;;;;;;5047165;28;20123;-78
2022/06/28 07:17:26;;;;;;;11.20;6.15;;;;;;;;;;5030548;28;20510;-78
2022/06/28 07:19:51;;;;;;;18.75;7.03;;;;;;;;;;5046754;28;20060;-78
2022/06/28 07:22:16;;;;;;;15.10;6.03;;;;;;;;;;5026304;28;20025;-77
2022/06/28 07:24:42;;;;;;;15.48;6.47;;;;;;;;;;5027199;28;20075;-78
2022/06/28 07:27:07;;;;;;;14.63;5.32;;;;;;;;;;5025880;28;20060;-78
2022/06/28 07:29:33;;;;;;;15.25;5.93;;;;;;;;;;5014828;28;20056;-78
2022/06/28 07:31:58;;;;;;;15.02;6.28;;;;;;;;;;5013402;28;20492;-78
2022/06/28 07:34:23;;;;;;;12.15;5.18;;;;;;;;;;5028999;28;20033;-78
2022/06/28 07:36:49;;;;;;;14.85;5.78;;;;;;;;;;5063252;28;20021;-78
2022/06/28 07:39:14;;;;;;;13.20;6.35;;;;;;;;;;5046296;28;20025;-78
2022/06/28 07:41:40;;;;;;;15.50;6.15;;;;;;;;;;5064558;28;20078;-78
2022/06/28 07:44:05;;;;;;;13.38;5.47;;;;;;;;;;5063064;28;20086;-78
2022/06/28 07:46:31;;;;;;;15.23;6.45;;;;;;;;;;5063902;28;20056;-78
2022/06/28 07:48:56;;;;;;;13.90;5.55;;;;;;;;;;5030153;28;20103;-78
2022/06/28 07:54:05;;;;;;;16.08;4.85;;;;;;;;;;5062612;28;20459;-78
2022/06/28 07:56:31;;;;;;;14.95;6.22;;;;;;;;;;5029661;28;22153;-78
2022/06/28 07:58:56;;;;;;;14.73;6.30;;;;;;;;;;5029634;28;20051;-78
2022/06/28 08:01:21;;;;;;;15.90;6.43;;;;;;;;;;5045623;28;20385;-77
2022/06/28 08:03:47;;;;;;;12.85;6.10;;;;;;;;;;5029074;28;20119;-77
2022/06/28 08:06:12;;;;;;;14.60;5.65;;;;;;;;;;5062843;28;20012;-77
2022/06/28 08:08:38;;;;;;;11.13;5.57;;;;;;;;;;5061121;28;20418;-78
2022/06/28 08:11:03;;;;;;;10.48;4.55;;;;;;;;;;5066188;28;20078;-77
2022/06/28 08:13:29;;;;;;;16.27;6.22;;;;;;;;;;5064661;28;20495;-77
2022/06/28 08:15:54;;;;;;;14.15;4.95;;;;;;;;;;5048126;28;20452;-77
2022/06/28 08:18:20;;;;;;;14.85;3.95;;;;;;;;;;5015460;28;20028;-76
2022/06/28 08:20:45;;;;;;;13.45;5.00;;;;;;;;;;5032550;28;20055;-77
2022/06/28 08:23:11;;;;;;;12.65;5.72;;;;;;;;;;5064936;28;20404;-77
2022/06/28 08:25:36;;;;;;;14.02;5.72;;;;;;;;;;5049779;28;20055;-77
2022/06/28 08:28:02;;;;;;;9.77;3.65;;;;;;;;;;5068336;28;20025;-77
2022/06/28 08:30:28;;;;;;;17.88;4.22;;;;;;;;;;5042697;28;20032;-77
2022/06/28 08:32:53;;;;;;;13.10;4.88;;;;;;;;;;5057285;28;20028;-77
2022/06/28 08:35:19;;;;;;;11.35;4.00;;;;;;;;;;5037360;28;20029;-77
2022/06/28 08:37:45;;;;;;;10.18;3.53;;;;;;;;;;5044779;28;20148;-77
2022/06/28 08:40:10;;;;;;;7.57;3.17;;;;;;;;;;5028926;28;20041;-77
2022/06/28 08:42:38;;;;;;;11.45;3.30;;;;;;;;;;5027897;28;20072;-77
2022/06/28 08:45:03;;;;;;;8.65;3.65;;;;;;;;;;5028801;28;20041;-78
2022/06/28 08:47:36;;;;;;;10.60;3.08;;;;;;;;;;5045560;28;20362;-77
2022/06/28 08:50:05;;;;;;;8.50;3.53;;;;;;;;;;5027765;28;20358;-77
2022/06/28 08:52:32;;;;;;;10.15;3.30;;;;;;;;;;5028197;28;20118;-77
2022/06/28 08:54:57;;;;;;;14.68;4.70;;;;;;;;;;5012824;28;20024;-78
2022/06/28 08:57:23;;;;;;;11.13;3.90;;;;;;;;;;5000715;28;20526;-78
2022/06/28 08:59:48;;;;;;;8.25;3.20;;;;;;;;;;5029482;28;20134;-78
2022/06/28 09:02:14;;;;;;;14.52;3.47;;;;;;;;;;5030751;28;20039;-78
2022/06/28 09:04:39;;;;;;;7.93;3.42;;;;;;;;;;5025938;28;20092;-78
2022/06/28 09:07:05;;;;;;;11.00;3.33;;;;;;;;;;5028126;28;20168;-78
2022/06/28 09:09:30;;;;;;;9.90;2.92;;;;;;;;;;5013210;28;20810;-78
2022/06/28 09:11:55;;;;;;;11.73;2.90;;;;;;;;;;5027974;28;20057;-78
2022/06/28 09:14:29;;;;;;;7.75;2.67;;;;;;;;;;5030294;28;20029;-77
2022/06/28 09:16:55;;;;;;;8.23;2.55;;;;;;;;;;5058340;28;20035;-78
2022/06/28 09:19:34;;;;;;;8.65;2.78;;;;;;;;;;5049054;28;20482;-78
2022/06/28 09:22:00;;;;;;;12.27;2.53;;;;;;;;;;5048746;28;20452;-78
2022/06/28 09:24:25;;;;;;;10.25;3.22;;;;;;;;;;5066467;28;20174;-78
2022/06/28 09:26:54;;;;;;;11.82;3.47;;;;;;;;;;5048879;28;20116;-78
2022/06/28 09:29:19;;;;;;;10.35;2.85;;;;;;;;;;5065897;28;20021;-78
2022/06/28 09:31:44;;;;;;;11.40;2.70;;;;;;;;;;5065950;28;20043;-78
2022/06/28 09:34:11;;;;;;;11.45;3.28;;;;;;;;;;5032068;28;20051;-77
2022/06/28 09:36:38;;;;;;;7.20;2.00;;;;;;;;;;5049224;28;20017;-78
2022/06/28 09:39:13;;;;;;;12.15;2.42;;;;;;;;;;5065198;28;20423;-78
2022/06/28 09:41:42;;;;;;;7.88;2.13;;;;;;;;;;5065172;28;20025;-78
2022/06/28 09:44:07;;;;;;;8.32;2.10;;;;;;;;;;5048654;28;20048;-78
2022/06/28 09:46:33;;;;;;;6.95;2.45;;;;;;;;;;5047744;28;20108;-78
2022/06/28 09:49:03;;;;;;;8.45;2.65;;;;;;;;;;5031319;28;20025;-79
2022/06/28 09:51:30;;;;;;;7.68;2.15;;;;;;;;;;5064619;28;20036;-78
2022/06/28 09:53:57;;;;;;;9.82;2.70;;;;;;;;;;5065246;28;20036;-78
2022/06/28 09:56:24;;;;;;;9.57;2.67;;;;;;;;;;5049197;28;20384;-78
2022/06/28 09:58:50;;;;;;;8.05;2.78;;;;;;;;;;5047901;28;20101;-77
2022/06/28 10:01:15;;;;;;;10.00;2.90;;;;;;;;;;5046120;28;20033;-78
2022/06/28 10:03:41;;;;;;;13.63;2.63;;;;;;;;;;5047937;28;20389;-77
2022/06/28 10:06:07;;;;;;;10.68;2.58;;;;;;;;;;5030883;28;20028;-77
2022/06/28 10:08:32;;;;;;;9.30;2.47;;;;;;;;;;5047528;28;20078;-77
2022/06/28 10:10:58;;;;;;;9.13;2.50;;;;;;;;;;5047194;28;20037;-77
2022/06/28 10:16:18;;;;;;;8.88;1.90;;;;;;;;;;5064857;28;20550;-78
2022/06/28 10:18:43;;;;;;;12.52;2.00;;;;;;;;;;5048791;28;20500;-78
2022/06/28 10:21:09;;;;;;;9.35;2.30;;;;;;;;;;5046807;28;20139;-78
2022/06/28 10:23:40;;;;;;;9.35;2.00;;;;;;;;;;5032268;28;20557;-78
2022/06/28 10:26:11;;;;;;;7.35;1.88;;;;;;;;;;5032110;28;20029;-78
2022/06/28 10:28:44;;;;;;;6.57;1.85;;;;;;;;;;5064891;28;20425;-78
2022/06/28 10:31:24;;;;;;;6.07;1.38;;;;;;;;;;5064721;28;20032;-78
2022/06/28 10:33:57;;;;;;;9.98;2.22;;;;;;;;;;5064474;28;20033;-78
2022/06/28 10:36:23;;;;;;;10.55;2.10;;;;;;;;;;5049081;28;20040;-78
2022/06/28 10:39:00;;;;;;;9.07;1.83;;;;;;;;;;5032945;28;20035;-78
2022/06/28 10:41:40;;;;;;;9.75;1.70;;;;;;;;;;5067367;28;20029;-78
2022/06/28 10:44:13;;;;;;;6.38;1.90;;;;;;;;;;5048190;28;20064;-78
2022/06/28 10:46:39;;;;;;;;;;;;;;;;;;5033904;28;20032;-78
2022/06/28 10:49:08;;;;;;;8.05;1.90;;;;;;;;;;5064863;28;19912;-78
2022/06/28 10:51:34;;;;;;;6.20;1.33;;;;;;;;;;5050138;28;20036;-78
2022/06/28 10:54:01;;;;;;;9.10;2.05;;;;;;;;;;5066343;28;25014;-78
2022/06/28 10:56:29;;;;;;;4.88;1.63;;;;;;;;;;5046249;28;20055;-78
2022/06/28 10:59:04;;;;;;;8.63;1.30;;;;;;;;;;5045607;28;20040;-78
2022/06/28 11:01:40;;;;;;;8.27;1.90;;;;;;;;;;5066177;28;20449;-78
2022/06/28 11:04:24;;;;;;;5.60;1.35;;;;;;;;;;5048366;28;20043;-78
2022/06/28 11:06:54;;;;;;;5.43;1.15;;;;;;;;;;5066084;28;20427;-78
2022/06/28 11:09:31;;;;;;;7.03;1.67;;;;;;;;;;5067373;28;20028;-78
2022/06/28 11:12:10;;;;;;;6.70;1.70;;;;;;;;;;5048136;28;20040;-79
2022/06/28 11:14:45;;;;;;;6.30;1.40;;;;;;;;;;5066192;28;20355;-79
2022/06/28 11:17:18;;;;;;;3.92;1.17;;;;;;;;;;5065383;28;20032;-79
2022/06/28 11:19:50;;;;;;;4.18;1.30;;;;;;;;;;5032899;28;20438;-79
2022/06/28 11:22:23;;;;;;;6.70;1.27;;;;;;;;;;5034060;28;20043;-78
2022/06/28 11:24:49;;;;;;;5.68;1.58;;;;;;;;;;5048919;28;20029;-78
2022/06/28 11:27:20;;;;;;;6.93;1.83;;;;;;;;;;5066410;28;20107;-79
2022/06/28 11:29:50;;;;;;;7.10;1.65;;;;;;;;;;5050469;28;20025;-79
2022/06/28 11:32:19;;;;;;;8.02;1.88;;;;;;;;;;5048288;28;20029;-79
2022/06/28 11:34:54;;;;;;;9.10;2.00;;;;;;;;;;5050055;28;20070;-79
2022/06/28 11:37:19;;;;;;;6.30;1.63;;;;;;;;;;5065915;28;20032;-79
2022/06/28 11:39:45;;;;;;;5.65;1.50;;;;;;;;;;5065946;28;20119;-79
2022/06/28 11:42:10;;;;;;;9.57;2.17;;;;;;;;;;5032539;28;20439;-79
2022/06/28 11:44:35;;;;;;;8.13;1.98;;;;;;;;;;5068174;28;20052;-79
2022/06/28 11:47:02;;;;;;;7.55;1.65;;;;;;;;;;5051940;28;20052;-79
2022/06/28 11:49:31;;;;;;;8.38;2.25;;;;;;;;;;5038032;28;20036;-79
2022/06/28 11:51:57;;;;;;;7.15;1.38;;;;;;;;;;5069585;28;20055;-79
2022/06/28 11:54:22;;;;;;;8.13;2.13;;;;;;;;;;5036392;28;20029;-79
2022/06/28 11:56:47;;;;;;;5.68;1.85;;;;;;;;;;5037213;28;20024;-79
2022/06/28 11:59:13;;;;;;;8.35;1.70;;;;;;;;;;5036831;28;20115;-79
2022/06/28 12:01:39;;;;;;;6.95;1.42;;;;;;;;;;5036114;28;20384;-78
2022/06/28 12:04:06;;;;;;;6.35;2.10;;;;;;;;;;5053242;28;20033;-79
2022/06/28 12:06:33;;;;;;;6.43;1.63;;;;;;;;;;5060605;28;20028;-78
2022/06/28 12:09:05;;;;;;;4.47;1.30;;;;;;;;;;5068664;28;20485;-78
2022/06/28 12:11:35;;;;;;;5.20;1.73;;;;;;;;;;5048503;28;20040;-79
2022/06/28 12:14:03;;;;;;;6.30;1.63;;;;;;;;;;5031277;28;20042;-79
2022/06/28 12:16:32;;;;;;;5.68;1.58;;;;;;;;;;5065843;28;20102;-79
2022/06/28 12:18:59;;;;;;;6.70;1.63;;;;;;;;;;5034529;28;20028;-78
2022/06/28 12:21:24;;;;;;;17.63;2.15;;;;;;;;;;5050878;28;20020;-78
2022/06/28 12:23:51;;;;;;;6.22;1.80;;;;;;;;;;5018952;28;22465;-79
2022/06/28 12:26:17;;;;;;;8.07;1.63;;;;;;;;;;5068943;28;20032;-79
2022/06/28 12:28:42;;;;;;;6.40;1.77;;;;;;;;;;5051439;28;20028;-79
2022/06/28 12:31:08;;;;;;;7.47;1.33;;;;;;;;;;5051015;28;20492;-78
2022/06/28 12:33:33;;;;;;;5.45;1.45;;;;;;;;;;5035863;28;20021;-79
2022/06/28 12:35:58;;;;;;;6.20;1.60;;;;;;;;;;5051215;28;20388;-78
2022/06/28 12:38:24;;;;;;;6.25;1.65;;;;;;;;;;5067369;28;20028;-79
2022/06/28 12:40:49;;;;;;;5.60;1.50;;;;;;;;;;5067823;28;20028;-78
2022/06/28 12:43:15;;;;;;;4.20;1.33;;;;;;;;;;5067896;28;20028;-79
2022/06/28 12:45:41;;;;;;;5.78;1.35;;;;;;;;;;5067854;28;20052;-79
2022/06/28 12:48:07;;;;;;;4.78;1.20;;;;;;;;;;5035573;28;20039;-79
2022/06/28 12:50:32;;;;;;;4.43;1.27;;;;;;;;;;5034421;28;20377;-79
2022/06/28 12:52:58;;;;;;;10.90;2.30;;;;;;;;;;5051240;28;20021;-79
2022/06/28 12:55:23;;;;;;;6.15;1.60;;;;;;;;;;5050022;28;20589;-79
2022/06/28 12:57:48;;;;;;;5.80;1.77;;;;;;;;;;5067634;28;20028;-79
2022/06/28 13:00:14;;;;;;;6.22;1.67;;;;;;;;;;5012651;28;20051;-79
2022/06/28 13:02:39;;;;;;;4.97;1.30;;;;;;;;;;5063636;28;20032;-79
2022/06/28 13:05:05;;;;;;;5.43;1.42;;;;;;;;;;5012228;28;20028;-80
2022/06/28 13:07:31;;;;;;;8.25;1.60;;;;;;;;;;5043845;28;20036;-80
2022/06/28 13:09:56;;;;;;;4.15;1.23;;;;;;;;;;5058581;28;20484;-79
2022/06/28 13:12:21;;;;;;;6.00;1.40;;;;;;;;;;5038080;28;20127;-80
2022/06/28 13:14:47;;;;;;;5.18;1.70;;;;;;;;;;5048250;28;20056;-80
2022/06/28 13:17:12;;;;;;;7.57;1.33;;;;;;;;;;5067313;28;20063;-80
2022/06/28 13:19:37;;;;;;;6.07;1.73;;;;;;;;;;5048929;28;20040;-81
2022/06/28 13:22:03;;;;;;;5.93;1.45;;;;;;;;;;5030975;28;20435;-81
2022/06/28 13:24:28;;;;;;;3.55;1.00;;;;;;;;;;5030856;28;20075;-81
2022/06/28 13:26:54;;;;;;;5.75;1.20;;;;;;;;;;5064468;28;20048;-81
2022/06/28 13:29:20;;;;;;;5.97;1.25;;;;;;;;;;5066425;28;20033;-81
2022/06/28 13:31:46;;;;;;;4.00;1.20;;;;;;;;;;5025553;28;20040;-81
2022/06/28 13:34:12;;;;;;;7.63;1.10;;;;;;;;;;5033448;28;20112;-81
2022/06/28 13:36:38;;;;;;;7.13;1.48;;;;;;;;;;5046905;28;20032;-81
2022/06/28 13:39:04;;;;;;;4.60;1.23;;;;;;;;;;5023312;28;20040;-81
2022/06/28 13:41:29;;;;;;;3.35;1.00;;;;;;;;;;5062661;28;20040;-81
2022/06/28 13:43:55;;;;;;;4.05;1.13;;;;;;;;;;5070053;28;20025;-80
2022/06/28 13:46:21;;;;;;;6.43;1.42;;;;;;;;;;5044256;28;20176;-80
2022/06/28 13:48:46;;;;;;;6.00;1.30;;;;;;;;;;5011976;28;20448;-80
2022/06/28 13:51:12;;;;;;;5.18;1.23;;;;;;;;;;5064990;28;20064;-80
2022/06/28 13:53:38;;;;;;;7.40;1.30;;;;;;;;;;5032272;28;20107;-80
2022/06/28 13:56:03;;;;;;;6.07;1.17;;;;;;;;;;5069150;28;20028;-79
2022/06/28 13:58:30;;;;;;;3.97;1.08;;;;;;;;;;5068737;28;20025;-80
2022/06/28 14:00:59;;;;;;;4.93;1.50;;;;;;;;;;5032706;28;20507;-79
2022/06/28 14:03:25;;;;;;;6.75;1.40;;;;;;;;;;5051026;28;20024;-80
2022/06/28 14:05:51;;;;;;;5.03;1.40;;;;;;;;;;5035599;28;20067;-80
2022/06/28 14:08:16;;;;;;;5.68;1.02;;;;;;;;;;5033682;28;20033;-80
2022/06/28 14:10:42;;;;;;;3.45;0.93;;;;;;;;;;5050049;28;20034;-79
2022/06/28 14:13:07;;;;;;;4.65;1.05;;;;;;;;;;5020868;28;20396;-79
2022/06/28 14:15:32;;;;;;;4.07;1.13;;;;;;;;;;5050862;28;20101;-79
2022/06/28 14:17:59;;;;;;;3.97;1.10;;;;;;;;;;5017775;28;20031;-80
2022/06/28 14:20:24;;;;;;;2.65;0.70;;;;;;;;;;5032953;28;20017;-79
2022/06/28 14:22:50;;;;;;;8.45;1.15;;;;;;;;;;5021423;28;20577;-79
2022/06/28 14:25:15;;;;;;;2.65;0.95;;;;;;;;;;5012998;28;20083;-79
2022/06/28 14:27:41;;;;;;;4.22;1.50;;;;;;;;;;5013551;28;20057;-79
2022/06/28 14:30:07;;;;;;;6.38;1.20;;;;;;;;;;5014590;28;20244;-79
2022/06/28 14:32:33;;;;;;;3.15;0.98;;;;;;;;;;5030006;28;20076;-79
2022/06/28 14:34:58;;;;;;;3.22;1.00;;;;;;;;;;5013287;28;20025;-79